createdAt,value
2022-08-17T00:00:12.795Z,97.30
2022-08-17T00:04:31.679Z,97.30
2022-08-17T00:08:46.228Z,97.30
2022-08-17T00:12:48.474Z,97.50
2022-08-17T00:16:57.395Z,97.40
2022-08-17T00:21:00.746Z,97.10
2022-08-17T00:25:05.375Z,96.60
2022-08-17T00:29:08.595Z,97.40
2022-08-17T00:33:17.218Z,97.20
2022-08-17T00:37:19.276Z,97.90
2022-08-17T00:41:25.342Z,98.30
2022-08-17T00:45:28.106Z,98.80
2022-08-17T00:49:31.403Z,99.50
2022-08-17T00:53:36.237Z,99.70
2022-08-17T00:57:46.890Z,99.90
2022-08-17T01:01:50.706Z,98.70
2022-08-17T01:05:56.916Z,99.70
2022-08-17T01:10:00.456Z,99.90
2022-08-17T01:14:02.396Z,99.90
2022-08-17T01:18:07.899Z,99.90
2022-08-17T01:22:11.364Z,99.90
2022-08-17T01:26:13.772Z,99.90
2022-08-17T01:30:58.091Z,99.90
2022-08-17T01:34:43.968Z,99.90
2022-08-17T01:38:52.338Z,99.90
2022-08-17T01:43:01.547Z,99.90
2022-08-17T01:47:04.277Z,99.80
2022-08-17T01:51:07.699Z,99.90
2022-08-17T01:55:10.607Z,99.90
2022-08-17T01:59:13.404Z,99.90
2022-08-17T02:03:18.912Z,99.90
2022-08-17T02:07:21.021Z,99.90
2022-08-17T02:11:29.168Z,99.90
2022-08-17T02:15:34.637Z,99.90
2022-08-17T02:19:36.572Z,99.90
2022-08-17T02:23:44.859Z,99.90
2022-08-17T02:27:47.015Z,99.90
2022-08-17T02:31:49.141Z,99.90
2022-08-17T02:35:50.999Z,99.90
2022-08-17T02:39:53.188Z,99.90
2022-08-17T02:43:55.625Z,99.90
2022-08-17T02:47:57.574Z,99.90
2022-08-17T02:52:02.250Z,99.90
2022-08-17T02:56:04.530Z,99.90
2022-08-17T03:00:11.545Z,99.90
2022-08-17T03:04:13.477Z,99.90
2022-08-17T03:08:16.047Z,99.90
2022-08-17T03:12:18.088Z,99.90
2022-08-17T03:16:20.072Z,99.90
2022-08-17T03:20:22.677Z,99.90
2022-08-17T03:24:28.673Z,99.90
2022-08-17T03:28:30.889Z,99.90
2022-08-17T03:32:45.452Z,99.90
2022-08-17T03:36:47.351Z,99.90
2022-08-17T03:40:56.941Z,99.90
2022-08-17T03:45:02.249Z,99.90
2022-08-17T03:49:25.268Z,99.90
2022-08-17T03:53:45.694Z,99.90
2022-08-17T03:57:48.958Z,99.90
2022-08-17T04:01:53.887Z,99.90
2022-08-17T04:05:56.467Z,99.90
2022-08-17T04:09:59.497Z,99.90
2022-08-17T04:14:02.599Z,99.90
2022-08-17T04:18:04.573Z,99.90
2022-08-17T04:22:06.771Z,99.90
2022-08-17T04:26:08.743Z,99.90
2022-08-17T04:30:11.331Z,99.90
2022-08-17T04:34:13.215Z,99.90
2022-08-17T04:38:18.674Z,99.90
2022-08-17T04:42:20.591Z,99.90
2022-08-17T04:46:34.372Z,99.90
2022-08-17T04:50:39.879Z,99.90
2022-08-17T04:54:41.808Z,99.90
2022-08-17T04:58:52.830Z,99.90
2022-08-17T05:02:56.281Z,99.90
2022-08-17T05:06:58.864Z,99.90
2022-08-17T05:11:00.991Z,99.90
2022-08-17T05:15:02.960Z,99.90
2022-08-17T05:19:04.948Z,99.90
2022-08-17T05:23:09.890Z,99.90
2022-08-17T05:27:18.694Z,99.90
2022-08-17T05:31:21.100Z,99.90
2022-08-17T05:35:24.116Z,99.90
2022-08-17T05:39:26.342Z,99.90
2022-08-17T05:43:30.891Z,99.90
2022-08-17T05:47:32.915Z,99.90
2022-08-17T05:51:50.115Z,99.90
2022-08-17T05:55:51.993Z,99.90
2022-08-17T06:00:18.359Z,99.90
2022-08-17T06:04:54.194Z,99.90
2022-08-17T06:09:14.163Z,99.90
2022-08-17T06:13:54.953Z,99.90
2022-08-17T06:18:01.979Z,99.90
2022-08-17T06:22:06.247Z,99.90
2022-08-17T06:26:39.616Z,99.90
2022-08-17T06:30:59.790Z,99.90
2022-08-17T06:35:04.554Z,99.90
2022-08-17T06:39:30.839Z,99.90
2022-08-17T06:43:48.185Z,99.90
2022-08-17T06:47:56.828Z,99.90
2022-08-17T06:52:55.727Z,99.90
2022-08-17T06:57:04.521Z,99.90
2022-08-17T07:01:26.963Z,98.20
2022-08-17T07:05:42.437Z,98.40
2022-08-17T07:09:46.086Z,98.00
2022-08-17T07:14:20.164Z,98.50
2022-08-17T07:18:25.559Z,98.10
2022-08-17T07:22:59.551Z,96.30
2022-08-17T07:27:08.914Z,95.70
2022-08-17T07:31:13.426Z,94.80
2022-08-17T07:35:40.742Z,93.00
2022-08-17T07:39:59.661Z,89.20
2022-08-17T07:44:12.474Z,87.20
2022-08-17T07:48:21.408Z,88.30
2022-08-17T07:52:51.126Z,82.00
2022-08-17T07:56:58.252Z,76.80
2022-08-17T08:01:10.254Z,68.80
2022-08-17T08:05:48.710Z,62.20
2022-08-17T08:10:10.755Z,59.00
2022-08-17T08:14:29.675Z,58.50
2022-08-17T08:18:54.750Z,58.40
2022-08-17T08:23:29.565Z,59.10
2022-08-17T08:27:58.011Z,57.00
2022-08-17T08:32:08.027Z,53.80
2022-08-17T08:36:59.326Z,52.20
2022-08-17T08:41:33.703Z,53.20
2022-08-17T08:46:03.166Z,52.50
2022-08-17T08:50:37.110Z,51.60
2022-08-17T08:54:35.155Z,50.30
2022-08-17T08:58:47.290Z,50.40
2022-08-17T09:03:03.120Z,50.70
2022-08-17T09:07:28.202Z,49.40
2022-08-17T09:12:02.109Z,49.70
2022-08-17T09:16:36.138Z,48.30
2022-08-17T09:20:50.242Z,46.70
2022-08-17T09:25:12.593Z,45.30
2022-08-17T09:29:16.960Z,44.80
2022-08-17T09:33:29.062Z,43.60
2022-08-17T09:38:04.803Z,43.60
2022-08-17T09:42:26.997Z,45.70
2022-08-17T09:46:39.029Z,43.10
2022-08-17T09:51:07.151Z,43.20
2022-08-17T09:55:09.638Z,41.90
2022-08-17T09:59:20.356Z,41.90
2022-08-17T10:03:28.690Z,42.20
2022-08-17T10:07:40.693Z,43.20
2022-08-17T10:12:17.785Z,42.10
2022-08-17T10:16:40.036Z,42.30
2022-08-17T10:20:45.610Z,41.60
2022-08-17T10:25:22.349Z,40.80
2022-08-17T10:29:49.801Z,40.10
2022-08-17T10:34:19.099Z,39.00
2022-08-17T10:38:31.951Z,40.20
2022-08-17T10:42:56.961Z,41.80
2022-08-17T10:47:15.121Z,39.60
2022-08-17T10:51:38.302Z,39.80
2022-08-17T10:55:41.945Z,39.20
2022-08-17T10:59:43.826Z,38.10
2022-08-17T11:03:54.843Z,39.30
2022-08-17T11:08:32.424Z,39.00
2022-08-17T11:13:05.808Z,36.60
2022-08-17T11:17:26.534Z,36.50
2022-08-17T11:21:56.228Z,35.50
2022-08-17T11:26:08.367Z,35.70
2022-08-17T11:30:47.020Z,36.10
2022-08-17T11:35:05.447Z,35.00
2022-08-17T11:39:32.305Z,34.50
2022-08-17T11:44:11.636Z,34.90
2022-08-17T11:48:38.765Z,34.10
2022-08-17T11:52:46.703Z,36.80
2022-08-17T11:56:51.192Z,37.80
2022-08-17T12:00:57.281Z,35.40
2022-08-17T12:05:17.368Z,35.30
2022-08-17T12:09:21.550Z,36.10
2022-08-17T12:13:35.217Z,36.00
2022-08-17T12:17:43.773Z,35.80
2022-08-17T12:22:00.093Z,36.10
2022-08-17T12:26:01.867Z,37.20
2022-08-17T12:30:12.373Z,37.00
2022-08-17T12:34:42.100Z,37.10
2022-08-17T12:39:13.847Z,36.60
2022-08-17T12:43:22.676Z,36.30
2022-08-17T12:47:25.881Z,37.20
2022-08-17T12:51:31.832Z,37.90
2022-08-17T12:55:37.223Z,38.70
2022-08-17T12:59:46.187Z,38.80
2022-08-17T13:03:59.773Z,39.00
2022-08-17T13:08:05.947Z,39.30
2022-08-17T13:12:08.221Z,38.80
2022-08-17T13:16:14.245Z,40.30
2022-08-17T13:20:16.274Z,40.90
2022-08-17T13:24:30.594Z,38.30
2022-08-17T13:28:50.133Z,40.40
2022-08-17T13:32:53.927Z,41.20
2022-08-17T13:37:29.674Z,40.20
2022-08-17T13:41:37.162Z,41.50
2022-08-17T13:45:50.359Z,42.00
2022-08-17T13:49:53.377Z,41.20
2022-08-17T13:54:01.589Z,40.80
2022-08-17T13:58:07.072Z,40.30
2022-08-17T14:02:11.203Z,41.20
2022-08-17T14:06:13.177Z,41.30
2022-08-17T14:10:36.665Z,42.60
2022-08-17T14:14:39.444Z,42.00
2022-08-17T14:18:56.687Z,41.70
2022-08-17T14:22:59.320Z,42.20
2022-08-17T14:27:03.659Z,43.80
2022-08-17T14:31:10.638Z,42.30
2022-08-17T14:35:14.702Z,42.00
2022-08-17T14:39:18.536Z,41.80
2022-08-17T14:43:21.097Z,42.80
2022-08-17T14:47:23.063Z,43.50
2022-08-17T14:51:27.646Z,43.50
2022-08-17T14:55:30.605Z,43.10
2022-08-17T14:59:32.587Z,42.40
2022-08-17T15:03:34.552Z,42.60
2022-08-17T15:07:36.538Z,41.70
2022-08-17T15:11:38.660Z,43.20
2022-08-17T15:15:40.588Z,44.50
2022-08-17T15:19:42.495Z,44.30
2022-08-17T15:23:44.656Z,43.60
2022-08-17T15:27:47.613Z,44.00
2022-08-17T15:31:49.674Z,44.90
2022-08-17T15:35:53.586Z,44.70
2022-08-17T15:39:56.081Z,45.40
2022-08-17T15:43:58.235Z,45.40
2022-08-17T15:48:00.616Z,44.50
2022-08-17T15:52:19.579Z,48.40
2022-08-17T15:56:21.916Z,45.50
2022-08-17T16:00:24.163Z,47.50
2022-08-17T16:04:30.152Z,50.60
2022-08-17T16:08:33.301Z,52.50
2022-08-17T16:12:36.060Z,53.90
2022-08-17T16:16:38.502Z,54.80
2022-08-17T16:20:40.486Z,52.80
2022-08-17T16:24:47.848Z,55.90
2022-08-17T16:29:01.659Z,57.80
2022-08-17T16:33:03.702Z,59.80
2022-08-17T16:37:05.659Z,58.90
2022-08-17T16:41:07.656Z,60.40
2022-08-17T16:45:19.650Z,61.90
2022-08-17T16:49:24.458Z,60.40
2022-08-17T16:53:39.555Z,60.60
2022-08-17T16:57:47.407Z,64.00
2022-08-17T17:01:52.719Z,62.40
2022-08-17T17:06:27.843Z,62.30
2022-08-17T17:10:50.873Z,63.00
2022-08-17T17:14:57.154Z,60.80
2022-08-17T17:19:38.562Z,64.20
2022-08-17T17:23:48.569Z,61.80
2022-08-17T17:28:38.394Z,64.80
2022-08-17T17:32:50.731Z,65.60
2022-08-17T17:36:56.559Z,65.20
2022-08-17T17:41:08.689Z,65.50
2022-08-17T17:45:25.946Z,65.30
2022-08-17T17:49:33.368Z,66.30
2022-08-17T17:53:55.394Z,66.40
2022-08-17T17:58:19.725Z,67.10
2022-08-17T18:02:51.547Z,68.50
2022-08-17T18:07:17.988Z,71.20
2022-08-17T18:11:34.865Z,69.30
2022-08-17T18:15:40.633Z,71.30
2022-08-17T18:19:42.552Z,68.00
2022-08-17T18:24:05.417Z,71.70
2022-08-17T18:28:09.196Z,69.70
2022-08-17T18:32:30.010Z,72.30
2022-08-17T18:36:36.446Z,71.70
2022-08-17T18:40:38.612Z,72.60
2022-08-17T18:44:40.488Z,72.10
2022-08-17T18:48:54.178Z,74.50
2022-08-17T18:53:33.275Z,76.20
2022-08-17T18:57:46.732Z,75.50
2022-08-17T19:02:05.036Z,75.50
2022-08-17T19:06:22.170Z,75.50
2022-08-17T19:10:46.107Z,75.90
2022-08-17T19:14:51.940Z,77.10
2022-08-17T19:19:06.951Z,78.00
2022-08-17T19:23:34.104Z,78.40
2022-08-17T19:28:01.738Z,77.80
2022-08-17T19:32:08.970Z,79.10
2022-08-17T19:36:32.898Z,78.50
2022-08-17T19:41:11.324Z,79.60
2022-08-17T19:45:29.791Z,81.20
2022-08-17T19:49:55.555Z,81.20
2022-08-17T19:54:15.123Z,80.70
2022-08-17T19:58:35.862Z,81.90
2022-08-17T20:02:59.492Z,81.00
2022-08-17T20:07:11.324Z,81.30
2022-08-17T20:11:52.215Z,80.20
2022-08-17T20:15:54.156Z,80.10
2022-08-17T20:20:20.236Z,82.20
2022-08-17T20:24:35.387Z,81.80
2022-08-17T20:28:39.102Z,81.30
2022-08-17T20:33:07.258Z,81.40
2022-08-17T20:37:09.576Z,82.00
2022-08-17T20:41:14.836Z,81.70
2022-08-17T20:45:25.137Z,83.20
2022-08-17T20:49:31.309Z,83.30
2022-08-17T20:53:48.507Z,83.50
2022-08-17T20:57:50.547Z,83.80
2022-08-17T21:02:18.829Z,84.90
2022-08-17T21:06:23.243Z,86.80
2022-08-17T21:10:25.107Z,85.90
2022-08-17T21:14:26.976Z,86.30
2022-08-17T21:18:58.269Z,84.50
2022-08-17T21:23:12.399Z,85.00
2022-08-17T21:27:20.445Z,84.90
2022-08-17T21:31:50.673Z,85.30
2022-08-17T21:35:52.628Z,84.50
2022-08-17T21:40:13.219Z,82.80
2022-08-17T21:44:17.994Z,84.20
2022-08-17T21:48:24.174Z,84.30
2022-08-17T21:52:27.702Z,84.60
2022-08-17T21:56:31.664Z,84.20
2022-08-17T22:00:34.628Z,84.70
2022-08-17T22:04:42.024Z,83.40
2022-08-17T22:09:02.381Z,85.30
2022-08-17T22:13:05.925Z,84.70
2022-08-17T22:17:21.127Z,85.00
2022-08-17T22:21:24.655Z,85.20
2022-08-17T22:25:29.547Z,87.80
2022-08-17T22:30:00.675Z,88.60
2022-08-17T22:34:02.562Z,90.10
2022-08-17T22:38:19.434Z,90.70
2022-08-17T22:42:21.332Z,91.60
2022-08-17T22:46:25.650Z,91.80
2022-08-17T22:50:33.131Z,91.50
2022-08-17T22:54:53.554Z,92.00
2022-08-17T22:59:16.553Z,92.70
2022-08-17T23:03:23.171Z,92.50
2022-08-17T23:07:25.160Z,91.70
2022-08-17T23:11:36.578Z,92.40
2022-08-17T23:15:51.576Z,92.00
2022-08-17T23:19:55.546Z,92.60
2022-08-17T23:23:59.152Z,92.10
2022-08-17T23:28:02.499Z,92.20
2022-08-17T23:32:05.243Z,92.00
2022-08-17T23:36:09.807Z,92.50
2022-08-17T23:40:11.957Z,92.60
2022-08-17T23:44:14.817Z,92.00
2022-08-17T23:48:27.794Z,93.20
2022-08-17T23:52:41.225Z,93.70
2022-08-17T23:56:46.734Z,94.20
